Sebring, Ohio
Current Conditions -  °F | °C
As of 4:51 PM on Monday 24 Nov 2014 (Local Time) from KCAK Reporting Station
Scattered Clouds Scattered Clouds  
Wind Chill: 50°   Ceiling: Unl
Heat Index: 50°   Visibility: 10mi
Dew Point: 36°   Wind: 23mph
Humidity: 59%   Direction: 240°WSW
Pressure: 29.59"   Gusts: 30mph
Location:  40.92°N, 81.02°W
Report Text: KCAK 242151Z 24020G26KT 10SM SCT036 10/02 A2959 RMK AO2 PK WND 26034/2114 SLP019 T01000022 $
Loading
Personal Weather Stations






























Interactive Weather Map New forecast layout! Learn more

10-Day Weather Forecast

Advertisements
Track Severe Weather on mobile